sensor_id;sensor_type;location;lat;lon;timestamp;pressure;altitude;pressure_sealevel;temperature
19568;BMP280;9930;49.240;8.548;2023-10-09T00:05:30;101074.16;;;18.87
19568;BMP280;9930;49.240;8.548;2023-10-09T00:08:25;101022.09;;;18.63
19568;BMP280;9930;49.240;8.548;2023-10-09T00:10:58;101045.56;;;18.76
19568;BMP280;9930;49.240;8.548;2023-10-09T00:13:39;101044.69;;;18.74
19568;BMP280;9930;49.240;8.548;2023-10-09T00:16:16;101047.34;;;18.81
19568;BMP280;9930;49.240;8.548;2023-10-09T00:18:44;101016.03;;;18.61
19568;BMP280;9930;49.240;8.548;2023-10-09T00:21:19;101025.47;;;18.60
19568;BMP280;9930;49.240;8.548;2023-10-09T00:23:49;101015.13;;;18.59
19568;BMP280;9930;49.240;8.548;2023-10-09T00:26:25;101037.72;;;18.70
19568;BMP280;9930;49.240;8.548;2023-10-09T00:28:52;101038.56;;;18.69
19568;BMP280;9930;49.240;8.548;2023-10-09T00:31:20;101047.28;;;18.76
19568;BMP280;9930;49.240;8.548;2023-10-09T00:34:06;101048.16;;;18.78
19568;BMP280;9930;49.240;8.548;2023-10-09T00:36:38;101031.63;;;18.67
19568;BMP280;9930;49.240;8.548;2023-10-09T00:39:16;101012.53;;;18.57
19568;BMP280;9930;49.240;8.548;2023-10-09T00:41:57;101030.78;;;18.68
19568;BMP280;9930;49.240;8.548;2023-10-09T00:44:24;101036.03;;;18.72
19568;BMP280;9930;49.240;8.548;2023-10-09T00:46:54;101029.06;;;18.67
19568;BMP280;9930;49.240;8.548;2023-10-09T00:49:33;101002.19;;;18.57
19568;BMP280;9930;49.240;8.548;2023-10-09T00:51:59;101016.06;;;18.62
19568;BMP280;9930;49.240;8.548;2023-10-09T00:54:25;101004.78;;;18.57
19568;BMP280;9930;49.240;8.548;2023-10-09T00:57:01;101024.72;;;18.66
19568;BMP280;9930;49.240;8.548;2023-10-09T00:59:34;101029.09;;;18.70
19568;BMP280;9930;49.240;8.548;2023-10-09T01:02:01;101014.38;;;18.64
19568;BMP280;9930;49.240;8.548;2023-10-09T01:04:33;101010.06;;;18.65
19568;BMP280;9930;49.240;8.548;2023-10-09T01:07:06;101010.06;;;18.63
19568;BMP280;9930;49.240;8.548;2023-10-09T01:09:42;101031.84;;;18.81
19568;BMP280;9930;49.240;8.548;2023-10-09T01:12:10;101002.34;;;18.66
19568;BMP280;9930;49.240;8.548;2023-10-09T01:14:46;100997.19;;;18.66
19568;BMP280;9930;49.240;8.548;2023-10-09T01:17:22;100957.28;;;18.48
19568;BMP280;9930;49.240;8.548;2023-10-09T01:20:02;101004.16;;;18.72
19568;BMP280;9930;49.240;8.548;2023-10-09T01:22:30;100965.03;;;18.49
19568;BMP280;9930;49.240;8.548;2023-10-09T01:24:56;100979.88;;;18.61
19568;BMP280;9930;49.240;8.548;2023-10-09T01:27:24;101010.28;;;18.80
19568;BMP280;9930;49.240;8.548;2023-10-09T01:29:57;101004.22;;;18.76
19568;BMP280;9930;49.240;8.548;2023-10-09T01:32:25;100975.59;;;18.63
19568;BMP280;9930;49.240;8.548;2023-10-09T01:34:52;100985.19;;;18.71
19568;BMP280;9930;49.240;8.548;2023-10-09T01:37:22;100959.09;;;18.56
19568;BMP280;9930;49.240;8.548;2023-10-09T01:39:49;100989.56;;;18.75
19568;BMP280;9930;49.240;8.548;2023-10-09T01:42:17;100978.25;;;18.67
19568;BMP280;9930;49.240;8.548;2023-10-09T01:45:09;100987.81;;;18.74
19568;BMP280;9930;49.240;8.548;2023-10-09T01:47:53;100970.53;;;18.70
19568;BMP280;9930;49.240;8.548;2023-10-09T01:50:23;100955.81;;;18.65
19568;BMP280;9930;49.240;8.548;2023-10-09T01:52:55;100972.28;;;18.73
19568;BMP280;9930;49.240;8.548;2023-10-09T01:55:21;100935.84;;;18.56
19568;BMP280;9930;49.240;8.548;2023-10-09T01:57:55;100978.38;;;18.78
19568;BMP280;9930;49.240;8.548;2023-10-09T02:00:28;100976.69;;;18.80
19568;BMP280;9930;49.240;8.548;2023-10-09T02:02:54;100974.09;;;18.79
19568;BMP280;9930;49.240;8.548;2023-10-09T02:05:20;100961.06;;;18.71
19568;BMP280;9930;49.240;8.548;2023-10-09T02:07:46;100955.78;;;18.63
19568;BMP280;9930;49.240;8.548;2023-10-09T02:10:23;100972.34;;;18.76
19568;BMP280;9930;49.240;8.548;2023-10-09T02:13:04;100950.59;;;18.62
19568;BMP280;9930;49.240;8.548;2023-10-09T02:15:40;100953.28;;;18.68
19568;BMP280;9930;49.240;8.548;2023-10-09T02:18:13;100961.94;;;18.73
19568;BMP280;9930;49.240;8.548;2023-10-09T02:21:06;100988.81;;;18.84
19568;BMP280;9930;49.240;8.548;2023-10-09T02:23:34;100973.19;;;18.76
19568;BMP280;9930;49.240;8.548;2023-10-09T02:26:20;100987.06;;;18.82
19568;BMP280;9930;49.240;8.548;2023-10-09T02:29:15;100954.94;;;18.63
19568;BMP280;9930;49.240;8.548;2023-10-09T02:31:52;100950.59;;;18.62
19568;BMP280;9930;49.240;8.548;2023-10-09T02:34:20;100949.75;;;18.63
19568;BMP280;9930;49.240;8.548;2023-10-09T02:36:53;100960.19;;;18.69
19568;BMP280;9930;49.240;8.548;2023-10-09T02:39:31;100947.09;;;18.60
19568;BMP280;9930;49.240;8.548;2023-10-09T02:42:03;100947.19;;;18.63
19568;BMP280;9930;49.240;8.548;2023-10-09T02:44:50;100961.91;;;18.70
19568;BMP280;9930;49.240;8.548;2023-10-09T02:47:20;100915.91;;;18.44
19568;BMP280;9930;49.240;8.548;2023-10-09T02:49:53;100934.16;;;18.58
19568;BMP280;9930;49.240;8.548;2023-10-09T02:52:26;100962.00;;;18.76
19568;BMP280;9930;49.240;8.548;2023-10-09T02:54:58;100948.03;;;18.63
19568;BMP280;9930;49.240;8.548;2023-10-09T02:57:36;100940.28;;;18.63
19568;BMP280;9930;49.240;8.548;2023-10-09T03:00:06;100945.53;;;18.68
19568;BMP280;9930;49.240;8.548;2023-10-09T03:02:50;100968.06;;;18.78
19568;BMP280;9930;49.240;8.548;2023-10-09T03:05:16;100937.69;;;18.62
19568;BMP280;9930;49.240;8.548;2023-10-09T03:07:42;100923.72;;;18.51
19568;BMP280;9930;49.240;8.548;2023-10-09T03:10:09;100924.63;;;18.53
19568;BMP280;9930;49.240;8.548;2023-10-09T03:12:36;100922.06;;;18.56
19568;BMP280;9930;49.240;8.548;2023-10-09T03:15:02;100930.88;;;18.67
19568;BMP280;9930;49.240;8.548;2023-10-09T03:17:31;100906.53;;;18.53
19568;BMP280;9930;49.240;8.548;2023-10-09T03:20:04;100937.84;;;18.74
19568;BMP280;9930;49.240;8.548;2023-10-09T03:22:38;100947.41;;;18.80
19568;BMP280;9930;49.240;8.548;2023-10-09T03:25:06;100933.47;;;18.68
19568;BMP280;9930;49.240;8.548;2023-10-09T03:27:45;100944.81;;;18.80
19568;BMP280;9930;49.240;8.548;2023-10-09T03:30:16;100936.97;;;18.72
19568;BMP280;9930;49.240;8.548;2023-10-09T03:32:49;100909.22;;;18.60
19568;BMP280;9930;49.240;8.548;2023-10-09T03:35:26;100961.31;;;18.91
19568;BMP280;9930;49.240;8.548;2023-10-09T03:37:59;100935.31;;;18.77
19568;BMP280;9930;49.240;8.548;2023-10-09T03:40:41;100963.91;;;18.92
19568;BMP280;9930;49.240;8.548;2023-10-09T03:43:09;100956.91;;;18.84
19568;BMP280;9930;49.240;8.548;2023-10-09T03:45:36;100937.03;;;18.76
19568;BMP280;9930;49.240;8.548;2023-10-09T03:48:04;100953.50;;;18.85
19568;BMP280;9930;49.240;8.548;2023-10-09T03:50:36;100942.16;;;18.75
19568;BMP280;9930;49.240;8.548;2023-10-09T03:53:04;100962.16;;;18.90
19568;BMP280;9930;49.240;8.548;2023-10-09T03:55:35;100924.88;;;18.69
19568;BMP280;9930;49.240;8.548;2023-10-09T03:58:01;100956.94;;;18.85
19568;BMP280;9930;49.240;8.548;2023-10-09T04:00:29;100961.25;;;18.85
19568;BMP280;9930;49.240;8.548;2023-10-09T04:02:58;100920.47;;;18.62
19568;BMP280;9930;49.240;8.548;2023-10-09T04:05:33;100935.16;;;18.66
19568;BMP280;9930;49.240;8.548;2023-10-09T04:08:03;100949.06;;;18.74
19568;BMP280;9930;49.240;8.548;2023-10-09T04:10:37;100929.88;;;18.60
19568;BMP280;9930;49.240;8.548;2023-10-09T04:13:17;100954.25;;;18.76
19568;BMP280;9930;49.240;8.548;2023-10-09T04:15:49;100943.84;;;18.71
19568;BMP280;9930;49.240;8.548;2023-10-09T04:18:17;100912.59;;;18.55
19568;BMP280;9930;49.240;8.548;2023-10-09T04:20:53;100943.81;;;18.70
19568;BMP280;9930;49.240;8.548;2023-10-09T04:23:38;100905.66;;;18.51
19568;BMP280;9930;49.240;8.548;2023-10-09T04:26:23;100925.56;;;18.59
19568;BMP280;9930;49.240;8.548;2023-10-09T04:28:51;100936.91;;;18.67
19568;BMP280;9930;49.240;8.548;2023-10-09T04:31:19;100931.66;;;18.63
19568;BMP280;9930;49.240;8.548;2023-10-09T04:33:47;100933.38;;;18.62
19568;BMP280;9930;49.240;8.548;2023-10-09T04:36:32;100930.78;;;18.61
19568;BMP280;9930;49.240;8.548;2023-10-09T04:39:15;100914.22;;;18.48
19568;BMP280;9930;49.240;8.548;2023-10-09T04:41:43;100893.47;;;18.40
19568;BMP280;9930;49.240;8.548;2023-10-09T04:44:09;100927.28;;;18.59
19568;BMP280;9930;49.240;8.548;2023-10-09T04:46:49;100928.13;;;18.58
19568;BMP280;9930;49.240;8.548;2023-10-09T04:49:37;100932.44;;;18.59
19568;BMP280;9930;49.240;8.548;2023-10-09T04:52:19;100896.84;;;18.36
19568;BMP280;9930;49.240;8.548;2023-10-09T04:54:51;100889.09;;;18.36
19568;BMP280;9930;49.240;8.548;2023-10-09T04:57:39;100918.66;;;18.57
19568;BMP280;9930;49.240;8.548;2023-10-09T05:00:06;100884.75;;;18.34
19568;BMP280;9930;49.240;8.548;2023-10-09T05:02:48;100918.56;;;18.51
19568;BMP280;9930;49.240;8.548;2023-10-09T05:05:21;100911.63;;;18.47
19568;BMP280;9930;49.240;8.548;2023-10-09T05:08:17;100931.56;;;18.57
19568;BMP280;9930;49.240;8.548;2023-10-09T05:10:52;100939.34;;;18.58
19568;BMP280;9930;49.240;8.548;2023-10-09T05:13:30;100959.38;;;18.73
19568;BMP280;9930;49.240;8.548;2023-10-09T05:16:16;100923.81;;;18.57
19568;BMP280;9930;49.240;8.548;2023-10-09T05:18:51;100927.28;;;18.59
19568;BMP280;9930;49.240;8.548;2023-10-09T05:21:47;100931.66;;;18.63
19568;BMP280;9930;49.240;8.548;2023-10-09T05:24:13;100929.09;;;18.64
19568;BMP280;9930;49.240;8.548;2023-10-09T05:26:49;100935.16;;;18.66
19568;BMP280;9930;49.240;8.548;2023-10-09T05:29:19;100958.63;;;18.83
19568;BMP280;9930;49.240;8.548;2023-10-09T05:31:49;100944.69;;;18.69
19568;BMP280;9930;49.240;8.548;2023-10-09T05:34:22;100936.00;;;18.65
19568;BMP280;9930;49.240;8.548;2023-10-09T05:36:51;100929.13;;;18.66
19568;BMP280;9930;49.240;8.548;2023-10-09T05:39:17;100943.94;;;18.79
19568;BMP280;9930;49.240;8.548;2023-10-09T05:42:06;100966.47;;;18.89
19568;BMP280;9930;49.240;8.548;2023-10-09T05:44:43;100969.06;;;18.89
19568;BMP280;9930;49.240;8.548;2023-10-09T05:47:41;100943.03;;;18.75
19568;BMP280;9930;49.240;8.548;2023-10-09T05:50:27;100931.78;;;18.70
19568;BMP280;9930;49.240;8.548;2023-10-09T05:52:56;100978.66;;;18.99
19568;BMP280;9930;49.240;8.548;2023-10-09T05:55:31;100943.06;;;18.77
19568;BMP280;9930;49.240;8.548;2023-10-09T05:58:16;100950.88;;;18.83
19568;BMP280;9930;49.240;8.548;2023-10-09T06:01:01;100945.63;;;18.77
19568;BMP280;9930;49.240;8.548;2023-10-09T06:03:45;100938.69;;;18.73
19568;BMP280;9930;49.240;8.548;2023-10-09T06:06:20;100982.09;;;18.98
19568;BMP280;9930;49.240;8.548;2023-10-09T06:09:06;100945.63;;;18.77
19568;BMP280;9930;49.240;8.548;2023-10-09T06:11:54;100974.38;;;19.01
19568;BMP280;9930;49.240;8.548;2023-10-09T06:14:22;100967.44;;;18.97
19568;BMP280;9930;49.240;8.548;2023-10-09T06:17:11;100961.44;;;19.00
19568;BMP280;9930;49.240;8.548;2023-10-09T06:19:40;100970.94;;;19.02
19568;BMP280;9930;49.240;8.548;2023-10-09T06:22:09;100950.19;;;18.96
19568;BMP280;9930;49.240;8.548;2023-10-09T06:24:40;100980.56;;;19.14
19568;BMP280;9930;49.240;8.548;2023-10-09T06:27:21;100971.88;;;19.09
19568;BMP280;9930;49.240;8.548;2023-10-09T06:29:59;100969.34;;;19.12
19568;BMP280;9930;49.240;8.548;2023-10-09T06:32:44;100974.56;;;19.17
19568;BMP280;9930;49.240;8.548;2023-10-09T06:35:39;100996.31;;;19.35
19568;BMP280;9930;49.240;8.548;2023-10-09T06:38:05;100980.69;;;19.26
19568;BMP280;9930;49.240;8.548;2023-10-09T06:40:51;100967.72;;;19.22
19568;BMP280;9930;49.240;8.548;2023-10-09T06:43:21;100963.41;;;19.21
19568;BMP280;9930;49.240;8.548;2023-10-09T06:45:57;100953.84;;;19.15
19568;BMP280;9930;49.240;8.548;2023-10-09T06:48:25;100986.81;;;19.34
19568;BMP280;9930;49.240;8.548;2023-10-09T06:51:11;100955.59;;;19.18
19568;BMP280;9930;49.240;8.548;2023-10-09T06:53:53;100974.72;;;19.32
19568;BMP280;9930;49.240;8.548;2023-10-09T06:56:27;100997.41;;;19.53
19568;BMP280;9930;49.240;8.548;2023-10-09T06:59:04;100950.53;;;19.28
19568;BMP280;9930;49.240;8.548;2023-10-09T07:01:42;100993.09;;;19.52
19568;BMP280;9930;49.240;8.548;2023-10-09T07:04:13;100987.09;;;19.57
19568;BMP280;9930;49.240;8.548;2023-10-09T07:07:06;100989.69;;;19.57
19568;BMP280;9930;49.240;8.548;2023-10-09T07:09:47;100973.28;;;19.55
19568;BMP280;9930;49.240;8.548;2023-10-09T07:12:34;100942.97;;;19.45
19568;BMP280;9930;49.240;8.548;2023-10-09T07:15:08;100981.16;;;19.67
19568;BMP280;9930;49.240;8.548;2023-10-09T07:17:34;100945.59;;;19.51
19568;BMP280;9930;49.240;8.548;2023-10-09T07:20:03;100970.75;;;19.60
19568;BMP280;9930;49.240;8.548;2023-10-09T07:22:45;100966.50;;;19.66
19568;BMP280;9930;49.240;8.548;2023-10-09T07:25:23;100987.31;;;19.79
19568;BMP280;9930;49.240;8.548;2023-10-09T07:28:12;100974.34;;;19.77
19568;BMP280;9930;49.240;8.548;2023-10-09T07:30:45;100956.13;;;19.66
19568;BMP280;9930;49.240;8.548;2023-10-09T07:33:12;100999.53;;;19.95
19568;BMP280;9930;49.240;8.548;2023-10-09T07:35:45;100998.69;;;19.96
19568;BMP280;9930;49.240;8.548;2023-10-09T07:38:17;100982.22;;;19.89
19568;BMP280;9930;49.240;8.548;2023-10-09T07:40:49;100964.09;;;19.89
19568;BMP280;9930;49.240;8.548;2023-10-09T07:43:31;100994.50;;;20.13
19568;BMP280;9930;49.240;8.548;2023-10-09T07:46:14;101009.25;;;20.23
19568;BMP280;9930;49.240;8.548;2023-10-09T07:49:03;100985.84;;;20.08
19568;BMP280;9930;49.240;8.548;2023-10-09T07:51:37;101008.41;;;20.26
19568;BMP280;9930;49.240;8.548;2023-10-09T07:54:03;100980.72;;;20.17
19568;BMP280;9930;49.240;8.548;2023-10-09T07:56:42;100992.06;;;20.34
19568;BMP280;9930;49.240;8.548;2023-10-09T07:59:15;101006.03;;;20.50
19568;BMP280;9930;49.240;8.548;2023-10-09T08:01:49;100998.22;;;20.43
19568;BMP280;9930;49.240;8.548;2023-10-09T08:04:25;101006.06;;;20.55
19568;BMP280;9930;49.240;8.548;2023-10-09T08:07:11;100990.47;;;20.49
19568;BMP280;9930;49.240;8.548;2023-10-09T08:09:54;101006.09;;;20.62
19568;BMP280;9930;49.240;8.548;2023-10-09T08:12:39;101005.28;;;20.66
19568;BMP280;9930;49.240;8.548;2023-10-09T08:15:24;100994.88;;;20.65
19568;BMP280;9930;49.240;8.548;2023-10-09T08:18:13;100996.63;;;20.69
19568;BMP280;9930;49.240;8.548;2023-10-09T08:20:54;101007.06;;;20.78
19568;BMP280;9930;49.240;8.548;2023-10-09T08:23:24;100998.41;;;20.81
19568;BMP280;9930;49.240;8.548;2023-10-09T08:26:05;101014.03;;;20.97
19568;BMP280;9930;49.240;8.548;2023-10-09T08:28:44;100990.66;;;20.87
19568;BMP280;9930;49.240;8.548;2023-10-09T08:31:18;100992.41;;;20.92
19568;BMP280;9930;49.240;8.548;2023-10-09T08:34:12;101013.22;;;21.05
19568;BMP280;9930;49.240;8.548;2023-10-09T08:36:50;100989.84;;;20.98
19568;BMP280;9930;49.240;8.548;2023-10-09T08:39:19;101008.94;;;21.19
19568;BMP280;9930;49.240;8.548;2023-10-09T08:41:55;101033.25;;;21.33
19568;BMP280;9930;49.240;8.548;2023-10-09T08:44:25;101014.22;;;21.37
19568;BMP280;9930;49.240;8.548;2023-10-09T08:46:56;101018.56;;;21.46
19568;BMP280;9930;49.240;8.548;2023-10-09T08:49:26;101030.72;;;21.62
19568;BMP280;9930;49.240;8.548;2023-10-09T08:51:59;101038.56;;;21.79
19568;BMP280;9930;49.240;8.548;2023-10-09T08:54:31;101013.44;;;21.72
19568;BMP280;9930;49.240;8.548;2023-10-09T08:57:05;100997.00;;;21.66
19568;BMP280;9930;49.240;8.548;2023-10-09T08:59:41;101003.06;;;21.85
19568;BMP280;9930;49.240;8.548;2023-10-09T09:02:10;100997.88;;;21.90
19568;BMP280;9930;49.240;8.548;2023-10-09T09:04:42;100990.97;;;22.01
19568;BMP280;9930;49.240;8.548;2023-10-09T09:07:26;101042.94;;;22.42
19568;BMP280;9930;49.240;8.548;2023-10-09T09:10:01;101016.09;;;22.36
19568;BMP280;9930;49.240;8.548;2023-10-09T09:12:44;101002.22;;;22.37
19568;BMP280;9930;49.240;8.548;2023-10-09T09:15:16;101023.84;;;22.54
19568;BMP280;9930;49.240;8.548;2023-10-09T09:17:47;101037.69;;;22.68
19568;BMP280;9930;49.240;8.548;2023-10-09T09:20:27;101038.56;;;22.75
19568;BMP280;9930;49.240;8.548;2023-10-09T09:22:57;101014.28;;;22.68
19568;BMP280;9930;49.240;8.548;2023-10-09T09:25:24;101009.94;;;22.78
19568;BMP280;9930;49.240;8.548;2023-10-09T09:28:04;101031.56;;;23.06
19568;BMP280;9930;49.240;8.548;2023-10-09T09:30:39;101008.16;;;22.98
19568;BMP280;9930;49.240;8.548;2023-10-09T09:33:27;101009.84;;;23.10
19568;BMP280;9930;49.240;8.548;2023-10-09T09:36:06;101019.34;;;23.20
19568;BMP280;9930;49.240;8.548;2023-10-09T09:38:34;101052.19;;;23.50
19568;BMP280;9930;49.240;8.548;2023-10-09T09:41:09;101009.72;;;23.36
19568;BMP280;9930;49.240;8.548;2023-10-09T09:43:37;101012.34;;;23.36
19568;BMP280;9930;49.240;8.548;2023-10-09T09:46:07;101040.03;;;23.50
19568;BMP280;9930;49.240;8.548;2023-10-09T09:48:38;101025.31;;;23.43
19568;BMP280;9930;49.240;8.548;2023-10-09T09:51:05;101005.38;;;23.36
19568;BMP280;9930;49.240;8.548;2023-10-09T09:53:34;101016.63;;;23.46
19568;BMP280;9930;49.240;8.548;2023-10-09T09:56:03;101014.03;;;23.43
19568;BMP280;9930;49.240;8.548;2023-10-09T09:58:29;101025.25;;;23.52
19568;BMP280;9930;49.240;8.548;2023-10-09T10:01:09;101007.09;;;23.42
19568;BMP280;9930;49.240;8.548;2023-10-09T10:03:50;101016.59;;;23.56
19568;BMP280;9930;49.240;8.548;2023-10-09T10:06:20;101026.13;;;23.59
19568;BMP280;9930;49.240;8.548;2023-10-09T10:08:48;101012.25;;;23.49
19568;BMP280;9930;49.240;8.548;2023-10-09T10:11:42;101045.94;;;23.81
19568;BMP280;9930;49.240;8.548;2023-10-09T10:14:13;101006.97;;;23.65
19568;BMP280;9930;49.240;8.548;2023-10-09T10:17:07;101017.31;;;23.80
19568;BMP280;9930;49.240;8.548;2023-10-09T10:20:07;101032.75;;;24.04
19568;BMP280;9930;49.240;8.548;2023-10-09T10:22:45;101009.34;;;23.97
19568;BMP280;9930;49.240;8.548;2023-10-09T10:25:33;101037.00;;;24.17
19568;BMP280;9930;49.240;8.548;2023-10-09T10:28:23;101043.84;;;24.31
19568;BMP280;9930;49.240;8.548;2023-10-09T10:31:05;101023.06;;;24.20
19568;BMP280;9930;49.240;8.548;2023-10-09T10:36:19;101014.34;;;24.24
19568;BMP280;9930;49.240;8.548;2023-10-09T10:39:04;100998.81;;;24.10
19568;BMP280;9930;49.240;8.548;2023-10-09T10:41:33;101016.09;;;24.23
19568;BMP280;9930;49.240;8.548;2023-10-09T10:44:04;101002.28;;;24.12
19568;BMP280;9930;49.240;8.548;2023-10-09T10:46:48;101030.84;;;24.29
19568;BMP280;9930;49.240;8.548;2023-10-09T10:49:19;101010.94;;;24.17
19568;BMP280;9930;49.240;8.548;2023-10-09T10:51:49;101016.19;;;24.11
19568;BMP280;9930;49.240;8.548;2023-10-09T10:54:26;100994.47;;;24.09
19568;BMP280;9930;49.240;8.548;2023-10-09T10:56:52;101012.66;;;24.18
19568;BMP280;9930;49.240;8.548;2023-10-09T10:59:19;101016.94;;;24.26
19568;BMP280;9930;49.240;8.548;2023-10-09T11:01:53;101025.56;;;24.35
19568;BMP280;9930;49.240;8.548;2023-10-09T11:04:24;101023.81;;;24.37
19568;BMP280;9930;49.240;8.548;2023-10-09T11:06:57;101009.03;;;24.36
19568;BMP280;9930;49.240;8.548;2023-10-09T11:09:44;101020.25;;;24.44
19568;BMP280;9930;49.240;8.548;2023-10-09T11:12:27;101034.94;;;24.54
19568;BMP280;9930;49.240;8.548;2023-10-09T11:15:07;101030.56;;;24.57
19568;BMP280;9930;49.240;8.548;2023-10-09T11:17:38;101033.19;;;24.57
19568;BMP280;9930;49.240;8.548;2023-10-09T11:20:09;101027.06;;;24.61
19568;BMP280;9930;49.240;8.548;2023-10-09T11:22:52;101014.88;;;24.61
19568;BMP280;9930;49.240;8.548;2023-10-09T11:25:43;100990.56;;;24.59
19568;BMP280;9930;49.240;8.548;2023-10-09T11:28:23;101005.19;;;24.74
19568;BMP280;9930;49.240;8.548;2023-10-09T11:31:12;101011.03;;;24.94
19568;BMP280;9930;49.240;8.548;2023-10-09T11:33:49;100969.34;;;24.88
19568;BMP280;9930;49.240;8.548;2023-10-09T11:36:21;100965.78;;;24.98
19568;BMP280;9930;49.240;8.548;2023-10-09T11:39:01;100978.53;;;25.20
19568;BMP280;9930;49.240;8.548;2023-10-09T11:41:43;100953.28;;;25.20
19568;BMP280;9930;49.240;8.548;2023-10-09T11:44:16;100940.06;;;25.32
19568;BMP280;9930;49.240;8.548;2023-10-09T11:47:08;100946.78;;;25.48
19568;BMP280;9930;49.240;8.548;2023-10-09T11:49:57;100940.41;;;25.68
19568;BMP280;9930;49.240;8.548;2023-10-09T11:53:03;100931.63;;;25.72
19568;BMP280;9930;49.240;8.548;2023-10-09T11:55:38;100971.09;;;26.07
19568;BMP280;9930;49.240;8.548;2023-10-09T11:58:06;100949.41;;;26.01
19568;BMP280;9930;49.240;8.548;2023-10-09T12:00:32;100935.50;;;26.00
19568;BMP280;9930;49.240;8.548;2023-10-09T12:03:12;100947.50;;;26.10
19568;BMP280;9930;49.240;8.548;2023-10-09T12:05:42;100923.34;;;25.98
19568;BMP280;9930;49.240;8.548;2023-10-09T12:08:28;100920.56;;;26.05
19568;BMP280;9930;49.240;8.548;2023-10-09T12:10:55;100936.94;;;26.15
19568;BMP280;9930;49.240;8.548;2023-10-09T12:13:24;100953.31;;;26.26
19568;BMP280;9930;49.240;8.548;2023-10-09T12:15:53;100935.22;;;26.14
19568;BMP280;9930;49.240;8.548;2023-10-09T12:18:21;100937.13;;;26.06
19568;BMP280;9930;49.240;8.548;2023-10-09T12:20:50;100923.31;;;25.99
19568;BMP280;9930;49.240;8.548;2023-10-09T12:23:18;100907.72;;;25.95
19568;BMP280;9930;49.240;8.548;2023-10-09T12:25:51;100925.72;;;26.10
19568;BMP280;9930;49.240;8.548;2023-10-09T12:28:27;100914.41;;;26.08
19568;BMP280;9930;49.240;8.548;2023-10-09T12:30:54;100913.53;;;26.09
19568;BMP280;9930;49.240;8.548;2023-10-09T12:33:21;100920.47;;;26.11
19568;BMP280;9930;49.240;8.548;2023-10-09T12:35:56;100922.25;;;26.09
19568;BMP280;9930;49.240;8.548;2023-10-09T12:38:30;100902.25;;;26.07
19568;BMP280;9930;49.240;8.548;2023-10-09T12:41:07;100901.31;;;26.09
19568;BMP280;9930;49.240;8.548;2023-10-09T12:43:49;100921.22;;;26.18
19568;BMP280;9930;49.240;8.548;2023-10-09T12:46:18;100916.81;;;26.20
19568;BMP280;9930;49.240;8.548;2023-10-09T12:48:49;100896.97;;;26.10
19568;BMP280;9930;49.240;8.548;2023-10-09T12:51:16;100900.34;;;26.15
19568;BMP280;9930;49.240;8.548;2023-10-09T12:53:45;100896.81;;;26.18
19568;BMP280;9930;49.240;8.548;2023-10-09T12:56:20;100902.78;;;26.24
19568;BMP280;9930;49.240;8.548;2023-10-09T12:59:02;100918.31;;;26.35
19568;BMP280;9930;49.240;8.548;2023-10-09T13:01:33;100897.53;;;26.26
19568;BMP280;9930;49.240;8.548;2023-10-09T13:04:09;100919.13;;;26.38
19568;BMP280;9930;49.240;8.548;2023-10-09T13:06:38;100901.69;;;26.37
19568;BMP280;9930;49.240;8.548;2023-10-09T13:09:14;100899.00;;;26.42
19568;BMP280;9930;49.240;8.548;2023-10-09T13:11:42;100884.19;;;26.41
19568;BMP280;9930;49.240;8.548;2023-10-09T13:14:09;100898.75;;;26.54
19568;BMP280;9930;49.240;8.548;2023-10-09T13:16:48;100879.84;;;26.40
19568;BMP280;9930;49.240;8.548;2023-10-09T13:19:18;100888.38;;;26.50
19568;BMP280;9930;49.240;8.548;2023-10-09T13:21:45;100895.13;;;26.60
19568;BMP280;9930;49.240;8.548;2023-10-09T13:24:14;100874.31;;;26.54
19568;BMP280;9930;49.240;8.548;2023-10-09T13:26:42;100883.75;;;26.62
19568;BMP280;9930;49.240;8.548;2023-10-09T13:29:12;100901.84;;;26.73
19568;BMP280;9930;49.240;8.548;2023-10-09T13:31:39;100859.53;;;26.53
19568;BMP280;9930;49.240;8.548;2023-10-09T13:34:12;100892.25;;;26.72
19568;BMP280;9930;49.240;8.548;2023-10-09T13:36:41;100871.63;;;26.58
19568;BMP280;9930;49.240;8.548;2023-10-09T13:39:21;100864.66;;;26.57
19568;BMP280;9930;49.240;8.548;2023-10-09T13:41:57;100863.63;;;26.64
19568;BMP280;9930;49.240;8.548;2023-10-09T13:44:30;100848.16;;;26.54
19568;BMP280;9930;49.240;8.548;2023-10-09T13:47:05;100832.50;;;26.52
19568;BMP280;9930;49.240;8.548;2023-10-09T13:49:32;100847.13;;;26.61
19568;BMP280;9930;49.240;8.548;2023-10-09T13:52:00;100831.56;;;26.55
19568;BMP280;9930;49.240;8.548;2023-10-09T13:54:28;100845.28;;;26.66
19568;BMP280;9930;49.240;8.548;2023-10-09T13:57:00;100854.84;;;26.67
19568;BMP280;9930;49.240;8.548;2023-10-09T13:59:29;100828.00;;;26.59
19568;BMP280;9930;49.240;8.548;2023-10-09T14:01:56;100844.38;;;26.67
19568;BMP280;9930;49.240;8.548;2023-10-09T14:04:25;100843.47;;;26.69
19568;BMP280;9930;49.240;8.548;2023-10-09T14:06:54;100850.38;;;26.72
19568;BMP280;9930;49.240;8.548;2023-10-09T14:09:25;100859.75;;;26.82
19568;BMP280;9930;49.240;8.548;2023-10-09T14:11:59;100853.88;;;26.72
19568;BMP280;9930;49.240;8.548;2023-10-09T14:17:17;100839.84;;;26.75
19568;BMP280;9930;49.240;8.548;2023-10-09T14:19:50;100824.38;;;26.64
19568;BMP280;9930;49.240;8.548;2023-10-09T14:22:21;100835.53;;;26.72
19568;BMP280;9930;49.240;8.548;2023-10-09T14:24:50;100821.72;;;26.66
19568;BMP280;9930;49.240;8.548;2023-10-09T14:27:39;100830.25;;;26.75
19568;BMP280;9930;49.240;8.548;2023-10-09T14:30:07;100831.91;;;26.79
19568;BMP280;9930;49.240;8.548;2023-10-09T14:32:38;100823.16;;;26.81
19568;BMP280;9930;49.240;8.548;2023-10-09T14:35:13;100805.84;;;26.73
19568;BMP280;9930;49.240;8.548;2023-10-09T14:37:40;100799.69;;;26.76
19568;BMP280;9930;49.240;8.548;2023-10-09T14:40:07;100833.38;;;26.91
19568;BMP280;9930;49.240;8.548;2023-10-09T14:42:39;100814.41;;;26.82
19568;BMP280;9930;49.240;8.548;2023-10-09T14:45:10;100822.97;;;26.88
19568;BMP280;9930;49.240;8.548;2023-10-09T14:47:42;100823.81;;;26.90
19568;BMP280;9930;49.240;8.548;2023-10-09T14:50:08;100807.41;;;26.82
19568;BMP280;9930;49.240;8.548;2023-10-09T14:52:35;100804.00;;;26.78
19568;BMP280;9930;49.240;8.548;2023-10-09T14:55:05;100802.25;;;26.79
19568;BMP280;9930;49.240;8.548;2023-10-09T14:57:31;100816.19;;;26.79
19568;BMP280;9930;49.240;8.548;2023-10-09T15:00:00;100816.09;;;26.84
19568;BMP280;9930;49.240;8.548;2023-10-09T15:02:27;100819.59;;;26.83